Warsaw, NY (14569)

10:54 PM EDT on July 30, 2016 (GMT -0400)
Synergy Farm | | Change Station

Elev 1080 ft 42.83 °N, 78.05 °W | Updated 1 second ago

Overcast
Overcast
69.4 °F
Feels Like 69.4 °F
N
0.0
Wind Variable Wind from East
Gusts 0.0 mph

Today
High -- | Low -- °F
--% Chance of Precip.
Yesterday
High -- | Low -- °F
Precip. -- in
Pressure 30.07 in
Visibility 10.0 miles
Clouds Few 2600 ft
Scattered Clouds 5000 ft
Overcast 9000 ft
Dew Point 63 °F
Humidity 81%
Rainfall 0.05 in
Snow Depth Not available.
6:02 AM 8:34 PM
Waning Crescent, 9% visible
METAR KDSV 310154Z AUTO 19004KT 10SM FEW026 SCT050 OVC090 21/18 A3005 RMK AO2 SLP182 T02110178
Pressure 30.07 in
Visibility 10.0 miles
Clouds Few 2600 ft
Scattered Clouds 5000 ft
Overcast 9000 ft
Dew Point 63 °F
Humidity 81%
Rainfall 0.05 in
Snow Depth Not available.
6:02 AM 8:34 PM
Waning Crescent, 9% visible
METAR KDSV 310154Z AUTO 19004KT 10SM FEW026 SCT050 OVC090 21/18 A3005 RMK AO2 SLP182 T02110178

10-Day Weather Forecast

Almanac

Astronomy

Jul. 30, 2016 Rise Set
Actual Time
Civil Twilight
Nautical Twilight
Astronomical Twilight
Moon
Length of Visible Light
Length of Day
Tomorrow will be .
, % of the Moon is Illuminated

Today's Extremes

State Highs State Lows

Community

WunderPhotos

Upload Photos

1,928,715 photos uploaded!

WunderBlog® & News

Nearby

Air Quality

  Air Quality AQ Index Pollutant
Not available.

Snow Depth

Station Depth Elevation

Earthquake Activity

City Distance Mag. Time & Date
Minimum magnitude displayed is 2.5.

Coastal Water Temperatures

Place Temperature

Stations

Nearby Weather Stations

Station Location Temp. Windchill Dew Point Humidity Wind Precip. Elev Updated Type
                   

Watches & Warnings

There are currently no watches in effect.